Time;durP1;ratioP1;P1;durP2;ratioP2;P2;SDS_P1;SDS_P2;PMS_P1;PMS_P2;Temp;Humidity;BMP_temperature;BMP_pressure;BME280_temperature;BME280_humidity;BME280_pressure;Samples;Min_cycle;Max_cycle;Signal;HPM_P1;HPM_P2
2023/09/22 00:01:03;;;;;;;8.70;7.60;;;;;;;21.08;92.74;99735.58;108427;1253;71218;-62
2023/09/22 00:03:31;;;;;;;7.80;6.80;;;;;;;21.06;94.17;99736.30;108409;1252;61456;-62
2023/09/22 00:05:59;;;;;;;;;;;;;;;21.04;95.91;99740.45;108515;1252;58838;-62
2023/09/22 00:08:26;;;;;;;8.10;7.20;;;;;;;21.00;97.36;99739.33;108495;1252;72719;-62
2023/09/22 00:10:54;;;;;;;9.70;7.90;;;;;;;20.94;97.83;99745.18;108482;1252;69064;-62
2023/09/22 00:13:22;;;;;;;8.50;7.20;;;;;;;20.91;99.22;99740.75;108512;1251;72296;-62
2023/09/22 00:15:50;;;;;;;8.00;7.30;;;;;;;20.90;99.83;99736.07;108494;1251;61782;-62
2023/09/22 00:18:17;;;;;;;8.10;7.10;;;;;;;20.90;100.00;99736.77;108430;1252;59890;-62
2023/09/22 00:20:46;;;;;;;;;;;;;;;20.90;100.00;99740.17;108585;1252;74683;-61
2023/09/22 00:23:16;;;;;;;9.70;7.90;;;;;;;20.89;100.00;99740.81;108526;1251;69172;-62
2023/09/22 00:25:43;;;;;;;18.20;7.70;;;;;;;20.87;100.00;99744.68;108526;1251;72422;-62
2023/09/22 00:29:46;;;;;;;9.10;7.80;;;;;;;20.29;100.00;99748.73;101497;1293;601524;-61
2023/09/22 00:32:14;;;;;;;9.30;8.40;;;;;;;20.77;100.00;99747.63;103561;1269;61464;-62
2023/09/22 00:34:42;;;;;;;10.20;9.20;;;;;;;20.77;100.00;99749.47;103436;1270;59447;-61
2023/09/22 00:37:09;;;;;;;12.40;8.70;;;;;;;20.74;100.00;99748.81;103462;1280;72525;-61
2023/09/22 00:39:37;;;;;;;;;;;;;;;20.68;100.00;99745.37;103157;1274;68060;-61
2023/09/22 00:42:08;;;;;;;10.90;8.00;;;;;;;20.62;100.00;99744.44;103552;1286;72439;-61
2023/09/22 00:44:36;;;;;;;8.50;7.80;;;;;;;20.57;100.00;99746.44;103769;1267;240997;-61
2023/09/22 00:47:06;;;;;;;11.40;8.70;;;;;;;20.54;100.00;99749.89;103864;1264;59348;-61
2023/09/22 00:49:34;;;;;;;11.90;8.20;;;;;;;20.51;100.00;99756.52;104885;1266;72684;-62
2023/09/22 00:52:02;;;;;;;10.10;9.20;;;;;;;20.49;100.00;99754.98;103983;1263;69063;-62
2023/09/22 00:54:30;;;;;;;;;;;;;;;20.45;100.00;99753.63;103896;1268;72381;-61
2023/09/22 00:56:58;;;;;;;11.60;8.90;;;;;;;20.41;100.00;99757.92;103712;1270;61898;-61
2023/09/22 00:59:26;;;;;;;;;;;;;;;20.34;100.00;99757.02;103826;1267;59711;-61
2023/09/22 01:01:54;;;;;;;;;;;;;;;20.25;100.00;99754.73;104001;1263;71567;-62
2023/09/22 01:04:23;;;;;;;9.20;8.00;;;;;;;20.21;100.00;99759.86;104266;1270;69454;-61
2023/09/22 01:06:51;;;;;;;10.40;9.30;;;;;;;20.17;100.00;99760.36;104234;1262;72419;-61
2023/09/22 01:09:19;;;;;;;;;;;;;;;20.12;100.00;99762.90;104213;1257;62435;-61
2023/09/22 01:11:47;;;;;;;9.40;8.50;;;;;;;20.07;100.00;99762.24;104001;1262;60417;-61
2023/09/22 01:14:15;;;;;;;12.30;9.10;;;;;;;19.99;100.00;99759.33;104092;1278;72770;-61
2023/09/22 01:16:42;;;;;;;10.20;9.20;;;;;;;19.96;100.00;99756.94;104214;1260;69363;-62
2023/09/22 01:19:16;;;;;;;13.60;9.20;;;;;;;19.96;100.00;99756.70;103990;1278;72538;-61
2023/09/22 01:21:46;;;;;;;13.30;9.30;;;;;;;19.92;100.00;99755.42;104146;1260;60759;-61
2023/09/22 01:24:15;;;;;;;10.10;9.20;;;;;;;19.88;100.00;99756.17;104015;1256;59878;-61
2023/09/22 01:26:42;;;;;;;10.20;9.30;;;;;;;19.85;100.00;99757.59;103996;1278;72942;-61
2023/09/22 01:29:10;;;;;;;11.70;8.70;;;;;;;19.86;100.00;99759.11;105728;1257;69145;-61
2023/09/22 01:31:38;;;;;;;14.60;9.10;;;;;;;19.89;100.00;99759.30;104232;1277;73386;-62
2023/09/22 01:34:10;;;;;;;9.60;8.70;;;;;;;19.93;100.00;99763.59;104259;1257;60381;-62
2023/09/22 01:36:38;;;;;;;9.90;8.80;;;;;;;19.97;100.00;99761.45;104224;1261;59774;-61
2023/09/22 01:39:09;;;;;;;;;;;;;;;19.97;100.00;99765.75;104273;1277;71921;-61
2023/09/22 01:41:37;;;;;;;9.20;8.40;;;;;;;19.91;100.00;99763.91;104155;1277;69243;-61
2023/09/22 01:44:05;;;;;;;10.10;8.80;;;;;;;19.88;100.00;99766.98;104041;1261;72706;-61
2023/09/22 01:46:33;;;;;;;11.80;9.50;;;;;;;19.87;100.00;99766.75;104143;1256;61363;-60
2023/09/22 01:49:02;;;;;;;11.20;9.10;;;;;;;19.80;100.00;99765.49;104071;1259;59730;-60
2023/09/22 01:51:30;;;;;;;9.70;8.80;;;;;;;19.79;100.00;99764.11;104164;1275;72735;-60
2023/09/22 01:53:57;;;;;;;;;;;;;;;19.77;100.00;99761.03;104926;1260;69263;-60
2023/09/22 01:56:25;;;;;;;;;;;;;;;19.74;100.00;99758.48;104137;1254;72482;-60
2023/09/22 01:58:53;;;;;;;;;;;;;;;19.68;100.00;99756.64;104065;1259;61826;-60
2023/09/22 02:01:22;;;;;;;10.10;7.80;;;;;;;19.61;100.00;99753.60;103974;1261;59781;-60
2023/09/22 02:03:54;;;;;;;11.50;8.60;;;;;;;19.53;100.00;99752.61;104233;1256;72880;-61
2023/09/22 02:06:24;;;;;;;11.30;8.60;;;;;;;19.59;100.00;99760.52;104090;1277;68069;-60
2023/09/22 02:08:52;;;;;;;9.30;8.20;;;;;;;19.59;100.00;99756.59;104020;1277;72515;-61
2023/09/22 02:11:20;;;;;;;9.80;8.70;;;;;;;19.57;100.00;99755.33;104010;1257;62027;-61
2023/09/22 02:13:48;;;;;;;11.50;9.50;;;;;;;19.55;100.00;99754.79;104255;1254;59851;-61
2023/09/22 02:16:16;;;;;;;9.90;8.50;;;;;;;19.55;100.00;99750.30;104108;1260;72887;-61
2023/09/22 02:18:44;;;;;;;12.90;8.90;;;;;;;19.56;100.00;99753.06;104316;1258;69093;-62
2023/09/22 02:21:14;;;;;;;9.70;8.50;;;;;;;19.51;100.00;99752.60;104141;1278;71426;-63
2023/09/22 02:23:41;;;;;;;11.10;8.90;;;;;;;19.49;100.00;99754.77;104117;1260;61368;-61
2023/09/22 02:26:09;;;;;;;12.70;9.90;;;;;;;19.47;100.00;99750.23;104155;1257;59720;-61
2023/09/22 02:28:37;;;;;;;;;;;;;;;19.45;100.00;99749.89;104043;1271;73249;-61
2023/09/22 02:31:05;;;;;;;12.10;8.90;;;;;;;19.42;100.00;99754.02;104281;1254;70106;-61
2023/09/22 02:33:33;;;;;;;14.10;9.10;;;;;;;19.37;100.00;99752.47;104004;1277;72493;-61
2023/09/22 02:36:04;;;;;;;10.00;8.80;;;;;;;19.33;100.00;99751.66;104246;1256;61497;-61
2023/09/22 02:38:32;;;;;;;9.80;8.70;;;;;;;19.28;100.00;99751.72;104330;1254;60713;-60
2023/09/22 02:41:02;;;;;;;10.90;9.70;;;;;;;19.24;100.00;99751.36;103941;1278;72796;-60
2023/09/22 02:43:29;;;;;;;;;;;;;;;19.14;100.00;99751.92;103999;1278;69330;-61
2023/09/22 02:46:03;;;;;;;9.70;8.80;;;;;;;19.06;100.00;99755.03;104470;1257;72374;-61
2023/09/22 02:48:31;;;;;;;11.20;8.10;;;;;;;18.96;100.00;99755.95;104305;1254;61385;-62
2023/09/22 02:50:59;;;;;;;;;;;;;;;18.88;100.00;99758.54;104691;1256;59783;-62
2023/09/22 02:53:27;;;;;;;12.70;8.50;;;;;;;18.79;100.00;99765.22;106874;1251;73108;-62
2023/09/22 02:55:56;;;;;;;9.90;8.90;;;;;;;18.76;100.00;99761.87;104333;1257;69064;-62
2023/09/22 02:58:23;;;;;;;12.00;9.40;;;;;;;18.71;100.00;99759.60;104452;1253;72448;-61
2023/09/22 03:00:51;;;;;;;11.20;10.10;;;;;;;18.63;100.00;99760.67;104307;1256;62333;-61
2023/09/22 03:03:20;;;;;;;10.30;9.40;;;;;;;18.56;100.00;99764.23;104461;1255;59713;-61
2023/09/22 03:05:53;;;;;;;10.10;9.10;;;;;;;18.49;100.00;99762.80;104267;1257;72930;-62
2023/09/22 03:08:22;;;;;;;10.10;9.20;;;;;;;18.37;100.00;99764.73;104406;1256;70479;-62
2023/09/22 03:10:50;;;;;;;10.70;9.70;;;;;;;18.33;100.00;99763.95;104311;1251;71303;-63
2023/09/22 03:13:18;;;;;;;10.40;8.90;;;;;;;18.28;100.00;99764.30;104327;1254;61411;-63
2023/09/22 03:15:46;;;;;;;11.60;9.60;;;;;;;18.27;100.00;99765.31;104346;1256;60053;-63
2023/09/22 03:18:15;;;;;;;18.80;9.80;;;;;;;18.24;100.00;99766.58;104271;1273;73357;-62
2023/09/22 03:20:43;;;;;;;10.60;9.60;;;;;;;18.23;100.00;99769.98;104232;1254;70230;-62
2023/09/22 03:23:11;;;;;;;;;;;;;;;18.21;100.00;99766.45;104375;1256;73388;-62
2023/09/22 03:25:39;;;;;;;10.00;9.10;;;;;;;18.19;100.00;99770.81;104536;1253;61541;-66
2023/09/22 03:28:08;;;;;;;11.60;10.50;;;;;;;18.17;100.00;99770.82;107947;1251;60158;-65
2023/09/22 03:30:39;;;;;;;12.00;9.40;;;;;;;18.18;100.00;99775.33;108207;1251;73714;-63
2023/09/22 03:33:07;;;;;;;15.10;10.50;;;;;;;18.19;100.00;99775.80;108514;1250;69170;-63
2023/09/22 03:35:38;;;;;;;10.20;9.10;;;;;;;18.19;100.00;99783.27;108577;1250;72486;-64
2023/09/22 03:38:09;;;;;;;10.80;9.80;;;;;;;18.12;100.00;99787.48;108406;1251;61365;-64
2023/09/22 03:40:41;;;;;;;13.00;9.70;;;;;;;18.11;100.00;99782.74;108537;1250;59787;-63
2023/09/22 03:43:09;;;;;;;9.40;8.50;;;;;;;18.10;100.00;99780.70;108470;1250;72203;-64
2023/09/22 03:45:39;;;;;;;10.80;9.70;;;;;;;18.12;100.00;99785.35;108679;1250;69297;-64
2023/09/22 03:48:08;;;;;;;10.20;9.10;;;;;;;18.17;100.00;99787.79;108446;1250;74420;-64
2023/09/22 03:50:36;;;;;;;16.90;9.60;;;;;;;18.21;100.00;99786.08;108451;1252;62526;-65
2023/09/22 03:53:04;;;;;;;15.70;8.60;;;;;;;18.26;100.00;99792.88;108306;1250;59830;-64
2023/09/22 03:55:32;;;;;;;;;;;;;;;18.27;100.00;99788.35;108496;1251;72688;-65
2023/09/22 03:58:00;;;;;;;9.60;7.70;;;;;;;18.28;100.00;99790.56;108470;1252;70133;-65
2023/09/22 04:00:28;;;;;;;9.80;7.80;;;;;;;18.29;100.00;99791.41;108351;1250;73359;-65
2023/09/22 04:02:56;;;;;;;10.60;8.30;;;;;;;18.35;100.00;99801.12;108395;1250;61802;-63
2023/09/22 04:05:26;;;;;;;10.60;8.50;;;;;;;18.38;100.00;99801.57;108363;1251;58522;-62
2023/09/22 04:07:57;;;;;;;9.90;8.20;;;;;;;18.40;100.00;99796.80;108422;1251;72830;-65
2023/09/22 04:10:25;;;;;;;9.30;8.40;;;;;;;18.43;100.00;99799.84;108436;1250;69433;-64
2023/09/22 04:12:52;;;;;;;;;;;;;;;18.45;100.00;99797.02;108480;1251;73325;-63
2023/09/22 04:15:22;;;;;;;17.10;8.50;;;;;;;18.49;100.00;99794.34;108285;1255;61641;-64
2023/09/22 04:17:51;;;;;;;9.70;8.40;;;;;;;18.56;100.00;99799.02;108572;1253;59695;-64
2023/09/22 04:20:29;;;;;;;12.10;8.60;;;;;;;18.63;100.00;99797.63;108575;1250;72784;-63
2023/09/22 04:22:58;;;;;;;9.80;7.80;;;;;;;18.74;100.00;99804.29;108572;1251;69609;-64
2023/09/22 04:25:29;;;;;;;9.00;8.10;;;;;;;18.79;100.00;99800.88;108452;1251;72315;-62
2023/09/22 04:28:04;;;;;;;10.00;8.40;;;;;;;18.82;100.00;99798.19;108466;1251;61360;-63
2023/09/22 04:30:32;;;;;;;10.70;8.60;;;;;;;18.85;100.00;99803.11;108584;1250;59695;-63
2023/09/22 04:33:00;;;;;;;9.10;8.10;;;;;;;18.86;100.00;99805.54;108462;1251;73330;-63
2023/09/22 04:35:32;;;;;;;11.00;8.20;;;;;;;18.95;100.00;99809.86;108493;1251;69234;-63
2023/09/22 04:38:01;;;;;;;13.50;8.80;;;;;;;19.03;100.00;99805.48;108419;1254;72497;-61
2023/09/22 04:40:34;;;;;;;9.50;8.30;;;;;;;19.06;100.00;99798.85;108524;1252;60395;-60
2023/09/22 04:43:05;;;;;;;10.00;8.30;;;;;;;19.12;100.00;99805.05;108678;1250;60348;-61
2023/09/22 04:45:40;;;;;;;12.50;8.10;;;;;;;19.14;100.00;99810.56;108621;1250;73953;-61
2023/09/22 04:48:09;;;;;;;11.80;8.20;;;;;;;19.19;100.00;99805.73;108571;1250;69442;-61
2023/09/22 04:50:36;;;;;;;;;;;;;;;19.22;100.00;99810.28;108560;1250;73387;-61
2023/09/22 04:53:04;;;;;;;13.80;8.50;;;;;;;19.22;100.00;99814.89;108500;1250;60799;-60
2023/09/22 04:55:35;;;;;;;10.20;8.30;;;;;;;19.25;100.00;99814.99;108557;1250;60689;-62
2023/09/22 04:58:05;;;;;;;10.80;8.60;;;;;;;19.33;100.00;99819.40;108538;1250;72701;-61
2023/09/22 05:00:36;;;;;;;11.10;8.70;;;;;;;19.37;100.00;99815.02;108656;1251;69170;-62
2023/09/22 05:03:07;;;;;;;14.50;8.30;;;;;;;19.41;100.00;99812.92;108618;1250;72546;-61
2023/09/22 05:05:35;;;;;;;9.50;8.50;;;;;;;19.45;100.00;99812.92;108639;1252;61576;-62
2023/09/22 05:08:04;;;;;;;10.20;8.80;;;;;;;19.52;100.00;99808.92;108585;1250;59963;-61
2023/09/22 05:10:38;;;;;;;9.10;8.20;;;;;;;19.55;100.00;99810.09;108558;1250;73681;-60
2023/09/22 05:13:06;;;;;;;9.10;8.00;;;;;;;19.60;100.00;99813.63;108708;1250;69295;-61
2023/09/22 05:15:34;;;;;;;12.60;9.10;;;;;;;19.62;100.00;99812.17;108647;1250;72328;-60
2023/09/22 05:18:04;;;;;;;10.80;9.00;;;;;;;19.65;100.00;99812.27;108581;1250;60442;-61
2023/09/22 05:20:32;;;;;;;13.70;8.00;;;;;;;19.70;100.00;99811.20;108584;1250;59685;-62
2023/09/22 05:23:00;;;;;;;13.10;8.40;;;;;;;19.75;100.00;99809.10;108589;1250;73644;-61
2023/09/22 05:25:28;;;;;;;10.30;7.80;;;;;;;19.79;100.00;99811.40;108511;1250;70246;-59
2023/09/22 05:27:56;;;;;;;16.60;8.40;;;;;;;19.85;100.00;99811.54;108528;1251;72867;-60
2023/09/22 05:30:25;;;;;;;10.50;8.50;;;;;;;19.88;100.00;99818.20;108659;1250;61375;-61
2023/09/22 05:32:53;;;;;;;13.30;8.40;;;;;;;19.90;100.00;99818.28;108601;1251;60650;-61
2023/09/22 05:35:21;;;;;;;9.60;8.40;;;;;;;19.94;100.00;99819.20;108542;1251;74500;-60
2023/09/22 05:41:12;;;;;;;10.10;8.60;;;;;;;20.13;100.00;99819.07;101537;1290;601474;-61
2023/09/22 05:43:40;;;;;;;;;;;;;;;20.17;100.00;99820.73;104128;1273;61458;-62
2023/09/22 05:46:08;;;;;;;;;;;;;;;20.21;100.00;99820.77;103992;1267;59471;-63
2023/09/22 05:48:36;;;;;;;8.50;7.60;;;;;;;20.21;100.00;99821.64;103806;1264;72495;-62
2023/09/22 05:51:05;;;;;;;;;;;;;;;20.25;100.00;99821.11;104140;1270;69018;-61
2023/09/22 05:53:35;;;;;;;9.70;7.90;;;;;;;20.31;100.00;99819.59;105525;1264;72530;-64
2023/09/22 05:56:07;;;;;;;9.40;8.10;;;;;;;20.35;100.00;99822.30;103802;1268;62001;-61
2023/09/22 05:58:36;;;;;;;10.80;8.50;;;;;;;20.41;100.00;99821.29;104263;1262;59754;-63
2023/09/22 06:01:13;;;;;;;15.00;8.00;;;;;;;20.45;100.00;99821.80;104084;1269;70960;-62
2023/09/22 06:03:42;;;;;;;11.00;7.50;;;;;;;20.51;100.00;99827.39;103932;1268;69419;-64
2023/09/22 06:06:11;;;;;;;9.10;7.60;;;;;;;20.56;100.00;99828.95;104139;1263;72873;-62
2023/09/22 06:08:40;;;;;;;10.20;8.20;;;;;;;20.62;100.00;99831.73;103953;1273;61473;-63
2023/09/22 06:11:08;;;;;;;9.40;7.50;;;;;;;20.68;100.00;99832.89;103830;1266;59720;-64
2023/09/22 06:13:36;;;;;;;9.90;8.60;;;;;;;20.72;100.00;99837.84;103971;1265;72748;-62
2023/09/22 06:16:04;;;;;;;11.30;7.50;;;;;;;20.73;100.00;99837.09;104377;1260;69112;-59
2023/09/22 06:18:32;;;;;;;9.40;7.30;;;;;;;20.76;100.00;99834.66;104298;1260;73376;-64
2023/09/22 06:21:04;;;;;;;12.40;7.30;;;;;;;20.81;100.00;99836.95;104350;1260;62412;-65
2023/09/22 06:23:32;;;;;;;18.70;6.90;;;;;;;20.89;100.00;99835.02;104525;1260;59761;-64
2023/09/22 06:26:05;;;;;;;11.90;7.20;;;;;;;20.99;100.00;99834.00;104599;1260;72898;-64
2023/09/22 06:28:32;;;;;;;7.40;6.50;;;;;;;21.11;100.00;99836.44;104273;1260;69741;-64
2023/09/22 06:31:01;;;;;;;12.80;6.40;;;;;;;21.25;100.00;99843.56;104619;1260;73373;-66
2023/09/22 06:33:33;;;;;;;9.80;6.30;;;;;;;21.39;100.00;99842.11;104447;1254;60519;-66
2023/09/22 06:36:03;;;;;;;9.20;6.30;;;;;;;21.50;100.00;99844.89;104604;1260;60532;-66
2023/09/22 06:38:34;;;;;;;9.30;5.70;;;;;;;21.59;100.00;99847.40;104475;1257;72816;-66
2023/09/22 06:41:04;;;;;;;16.80;6.80;;;;;;;21.66;100.00;99847.79;104548;1256;68159;-65
2023/09/22 06:43:33;;;;;;;11.90;6.00;;;;;;;21.75;100.00;99848.54;104560;1251;72512;-65
2023/09/22 06:46:03;;;;;;;10.30;5.80;;;;;;;21.84;100.00;99846.84;104485;1254;61409;-66
2023/09/22 06:48:31;;;;;;;8.00;5.40;;;;;;;21.91;99.99;99852.25;104495;1251;59749;-66
2023/09/22 06:50:59;;;;;;;8.90;4.90;;;;;;;22.02;98.54;99850.25;104408;1251;73116;-66
2023/09/22 06:53:33;;;;;;;;;;;;;;;22.13;96.89;99847.84;104343;1275;69127;-65
2023/09/22 06:56:11;;;;;;;10.10;4.60;;;;;;;22.28;94.42;99850.36;105187;1253;71593;-65
2023/09/22 06:58:40;;;;;;;7.10;4.70;;;;;;;22.52;90.96;99850.84;104291;1255;61417;-65
2023/09/22 07:01:12;;;;;;;7.30;4.30;;;;;;;22.68;88.60;99847.52;104338;1259;59695;-64
2023/09/22 07:03:43;;;;;;;9.80;4.70;;;;;;;22.79;84.86;99849.16;104304;1259;72770;-64
2023/09/22 07:06:13;;;;;;;10.70;4.40;;;;;;;22.88;83.87;99849.04;104266;1261;69437;-64
2023/09/22 07:08:41;;;;;;;7.80;4.30;;;;;;;22.97;83.02;99848.59;104280;1273;72842;-64
2023/09/22 07:11:12;;;;;;;10.60;4.60;;;;;;;23.04;81.98;99845.34;104363;1254;61431;-63
2023/09/22 07:13:40;;;;;;;11.60;4.70;;;;;;;23.13;82.16;99845.36;104481;1260;59733;-63
2023/09/22 07:16:09;;;;;;;8.90;4.70;;;;;;;23.21;81.85;99846.08;104272;1273;72720;-62
2023/09/22 07:18:37;;;;;;;11.20;4.60;;;;;;;23.33;81.75;99847.68;104416;1258;70018;-62
2023/09/22 07:21:09;;;;;;;6.00;3.90;;;;;;;23.44;79.99;99847.34;104725;1257;73404;-65
2023/09/22 07:23:37;;;;;;;10.40;4.10;;;;;;;23.54;78.96;99842.11;104341;1256;62187;-69
2023/09/22 07:26:06;;;;;;;10.50;4.00;;;;;;;23.62;78.62;99841.54;104528;1251;59710;-65
2023/09/22 07:28:34;;;;;;;7.50;4.00;;;;;;;23.71;77.70;99844.30;104550;1251;72843;-65
2023/09/22 07:31:12;;;;;;;;;;;;;;;23.75;77.04;99844.44;104580;1257;70293;-66
2023/09/22 07:33:40;;;;;;;;;;;;;;;23.83;76.92;99848.52;104397;1260;73379;-65
2023/09/22 07:36:08;;;;;;;5.90;3.90;;;;;;;23.87;76.10;99844.41;104469;1256;61403;-63
2023/09/22 07:38:39;;;;;;;5.50;3.80;;;;;;;23.90;74.45;99842.46;104376;1257;60643;-62
2023/09/22 07:41:06;;;;;;;9.50;4.70;;;;;;;24.01;73.46;99842.30;104390;1273;72072;-63
2023/09/22 07:43:35;;;;;;;;;;;;;;;24.17;72.07;99840.08;104504;1257;69400;-64
2023/09/22 07:46:06;;;;;;;9.70;4.60;;;;;;;24.29;70.99;99842.17;104573;1256;73516;-63
2023/09/22 07:48:35;;;;;;;6.70;3.90;;;;;;;24.39;71.41;99842.13;104277;1257;62305;-64
2023/09/22 07:51:03;;;;;;;8.00;4.60;;;;;;;24.52;70.21;99841.73;104307;1250;60671;-62
2023/09/22 07:53:31;;;;;;;10.30;3.90;;;;;;;24.63;68.94;99842.11;104780;1250;73260;-64
2023/09/22 07:56:01;;;;;;;;;;;;;;;24.79;66.53;99837.61;106403;1251;69409;-64
2023/09/22 07:58:29;;;;;;;6.30;4.20;;;;;;;24.97;64.33;99835.11;104732;1255;73312;-63
2023/09/22 08:00:59;;;;;;;9.60;3.90;;;;;;;25.17;63.24;99833.49;104348;1274;59901;-64
2023/09/22 08:03:28;;;;;;;8.60;3.60;;;;;;;25.30;62.65;99829.75;104429;1257;59751;-63
2023/09/22 08:05:56;;;;;;;6.50;3.50;;;;;;;25.43;61.95;99826.76;104917;1251;71879;-65
2023/09/22 08:08:24;;;;;;;9.70;4.10;;;;;;;25.58;60.96;99823.27;104691;1254;70060;-63
2023/09/22 12:46:11;;;;;;;11.00;3.10;;;;;;;30.02;37.80;99702.22;101506;1295;601019;-67
2023/09/22 12:48:40;;;;;;;6.40;3.00;;;;;;;30.44;37.44;99703.11;103620;1279;60740;-66
2023/09/22 12:51:11;;;;;;;6.10;3.50;;;;;;;30.51;37.83;99699.98;103460;1273;59373;-67
2023/09/22 12:53:40;;;;;;;4.00;2.80;;;;;;;30.59;38.29;99700.26;103454;1277;72871;-68
2023/09/22 12:56:07;;;;;;;10.80;3.50;;;;;;;30.71;38.06;99693.89;103578;1267;70304;-67
2023/09/22 12:58:35;;;;;;;;;;;;;;;30.72;38.17;99694.95;103471;1271;72845;-67
2023/09/22 13:01:04;;;;;;;7.10;3.30;;;;;;;30.73;38.25;99695.75;103707;1273;60977;-65
2023/09/22 13:03:33;;;;;;;5.70;3.10;;;;;;;30.62;38.16;99694.09;103874;1270;59858;-64
2023/09/22 13:06:03;;;;;;;5.60;3.40;;;;;;;30.51;38.41;99693.84;104099;1266;72152;-64
2023/09/22 13:08:36;;;;;;;8.60;3.50;;;;;;;30.34;38.82;99692.65;104035;1263;69543;-65
2023/09/22 13:11:04;;;;;;;6.00;2.80;;;;;;;30.16;38.96;99695.04;103945;1274;72752;-64
2023/09/22 13:13:35;;;;;;;5.10;3.20;;;;;;;30.06;39.46;99697.05;103832;1286;60232;-65
2023/09/22 13:16:03;;;;;;;7.90;3.40;;;;;;;29.95;39.80;99695.39;103857;1286;60466;-66
2023/09/22 13:18:31;;;;;;;6.30;3.70;;;;;;;29.95;39.93;99696.45;103796;1285;71862;-65
2023/09/22 13:20:59;;;;;;;7.60;3.50;;;;;;;29.97;39.97;99694.81;103914;1264;70420;-65
2023/09/22 13:23:26;;;;;;;;;;;;;;;29.96;39.72;99696.52;104038;1264;73161;-65
2023/09/22 13:25:56;;;;;;;6.00;3.70;;;;;;;29.86;39.83;99697.66;104042;1280;60065;-65
2023/09/22 13:28:24;;;;;;;12.90;4.20;;;;;;;29.84;39.91;99696.50;103965;1266;60150;-64
2023/09/22 13:30:55;;;;;;;;;;;;;;;29.84;39.86;99694.84;103893;1265;72854;-65
2023/09/22 13:33:23;;;;;;;3.90;3.30;;;;;;;29.84;39.60;99697.23;104320;1268;69917;-69
2023/09/22 13:35:51;;;;;;;7.70;3.50;;;;;;;29.74;39.76;99693.48;104331;1273;72499;-65
2023/09/22 13:38:19;;;;;;;5.70;3.70;;;;;;;29.71;39.72;99692.85;104497;1256;59858;-67
2023/09/22 13:40:47;;;;;;;7.50;3.50;;;;;;;29.61;39.80;99689.97;104409;1255;59878;-66
2023/09/22 13:43:15;;;;;;;8.30;3.70;;;;;;;29.77;39.59;99690.08;104271;1267;73131;-66
2023/09/22 13:45:43;;;;;;;3.80;3.00;;;;;;;30.01;38.96;99686.48;104831;1256;69572;-65
2023/09/22 13:48:12;;;;;;;12.60;4.00;;;;;;;30.21;38.70;99689.34;104278;1257;73344;-65
2023/09/22 13:50:39;;;;;;;4.70;3.00;;;;;;;30.47;37.95;99681.12;104282;1257;60371;-66
2023/09/22 13:53:08;;;;;;;4.50;3.00;;;;;;;30.76;37.81;99681.45;104319;1254;60707;-65
2023/09/22 13:55:38;;;;;;;6.50;3.70;;;;;;;30.83;37.50;99681.27;104365;1257;72845;-66
2023/09/22 13:58:07;;;;;;;7.60;3.60;;;;;;;30.88;37.34;99682.02;105258;1256;69750;-65
2023/09/22 14:00:35;;;;;;;10.50;3.50;;;;;;;31.06;36.99;99678.92;104376;1254;71749;-65
2023/09/22 14:03:02;;;;;;;;;;;;;;;31.25;36.83;99677.28;104624;1269;60332;-66
2023/09/22 14:05:34;;;;;;;5.80;3.10;;;;;;;31.39;36.54;99676.61;104788;1260;62244;-66
2023/09/22 14:08:04;;;;;;;3.70;2.90;;;;;;;31.45;36.30;99671.66;104392;1253;73467;-66
2023/09/22 14:10:34;;;;;;;6.50;2.90;;;;;;;31.46;35.99;99676.07;104554;1257;69241;-66
2023/09/22 14:13:02;;;;;;;4.30;3.20;;;;;;;31.37;36.11;99673.92;104454;1269;73545;-65
2023/09/22 14:15:29;;;;;;;;;;;;;;;31.23;36.26;99680.41;104507;1259;59796;-66
2023/09/22 14:17:57;;;;;;;6.40;3.40;;;;;;;31.06;36.35;99674.15;104698;1254;59768;-67
2023/09/22 14:20:25;;;;;;;5.00;3.40;;;;;;;30.81;36.58;99677.65;104797;1257;73128;-67
2023/09/22 14:22:56;;;;;;;5.80;3.50;;;;;;;30.57;36.88;99671.34;104591;1254;69748;-65
2023/09/22 14:25:24;;;;;;;5.40;3.60;;;;;;;30.37;36.74;99672.42;104431;1255;72282;-66
2023/09/22 14:27:53;;;;;;;8.90;3.30;;;;;;;30.22;36.86;99672.83;104398;1257;60047;-63
2023/09/22 14:30:21;;;;;;;12.20;3.70;;;;;;;30.06;37.05;99673.51;104337;1257;60323;-63
2023/09/22 14:32:49;;;;;;;5.00;3.50;;;;;;;29.98;37.01;99673.14;104517;1259;72983;-63
2023/09/22 14:35:17;;;;;;;6.40;3.10;;;;;;;30.07;36.96;99671.08;104686;1256;69497;-63
2023/09/22 14:37:45;;;;;;;;;;;;;;;30.20;36.98;99667.67;104430;1276;72940;-63
2023/09/22 14:40:13;;;;;;;6.60;3.10;;;;;;;30.23;36.92;99667.39;104295;1257;60002;-64
2023/09/22 14:42:41;;;;;;;5.00;3.20;;;;;;;30.27;36.61;99665.09;104386;1258;59723;-63
2023/09/22 14:45:09;;;;;;;;;;;;;;;30.25;36.73;99664.64;104398;1270;73530;-65
2023/09/22 14:47:37;;;;;;;6.50;3.30;;;;;;;30.31;36.39;99661.95;104585;1260;69501;-64
2023/09/22 14:50:06;;;;;;;4.80;3.70;;;;;;;30.36;36.53;99661.35;104640;1272;72555;-65
2023/09/22 14:52:34;;;;;;;7.70;3.40;;;;;;;30.39;36.52;99661.39;104815;1257;59772;-65
2023/09/22 14:55:03;;;;;;;9.60;3.50;;;;;;;30.45;36.65;99665.66;104727;1257;59768;-64
2023/09/22 14:57:31;;;;;;;5.40;3.70;;;;;;;30.46;36.70;99662.79;107243;1256;73647;-64
2023/09/22 14:59:59;;;;;;;6.90;3.50;;;;;;;30.43;36.47;99662.97;104965;1259;69410;-65
2023/09/22 15:02:27;;;;;;;6.90;3.80;;;;;;;30.37;36.55;99659.58;104617;1260;72727;-64
2023/09/22 15:04:55;;;;;;;5.40;3.60;;;;;;;30.26;36.97;99661.36;104730;1257;60874;-64
2023/09/22 15:07:23;;;;;;;;;;;;;;;30.15;36.97;99662.83;104917;1254;60732;-63
2023/09/22 15:09:50;;;;;;;5.30;4.10;;;;;;;29.97;37.12;99668.92;104929;1260;73532;-63
2023/09/22 15:12:20;;;;;;;12.00;4.00;;;;;;;29.78;37.52;99670.90;104419;1272;69989;-63
2023/09/22 15:14:51;;;;;;;;;;;;;;;29.60;37.65;99668.23;104561;1258;73335;-66
2023/09/22 15:17:20;;;;;;;6.60;3.80;;;;;;;29.44;38.10;99671.87;104430;1260;60440;-66
2023/09/22 15:19:49;;;;;;;4.20;3.80;;;;;;;29.30;38.45;99669.81;104291;1276;60026;-68
2023/09/22 15:22:20;;;;;;;6.30;4.10;;;;;;;29.19;38.73;99667.38;104564;1260;72816;-68
2023/09/22 15:24:48;;;;;;;5.50;3.70;;;;;;;29.12;38.87;99664.77;104535;1257;69373;-67
2023/09/22 15:27:16;;;;;;;;;;;;;;;29.06;38.93;99665.34;104552;1260;72834;-66
2023/09/22 15:29:44;;;;;;;6.30;3.50;;;;;;;28.98;39.01;99667.74;104318;1260;59752;-65
2023/09/22 15:32:13;;;;;;;4.10;3.30;;;;;;;28.83;39.05;99666.61;104314;1257;60415;-66
2023/09/22 15:34:42;;;;;;;7.40;3.60;;;;;;;28.73;39.03;99667.29;104286;1257;73225;-66
2023/09/22 15:37:10;;;;;;;4.10;3.20;;;;;;;28.61;39.09;99666.56;104392;1266;69059;-66
2023/09/22 15:39:37;;;;;;;4.70;3.30;;;;;;;28.51;39.32;99675.59;104350;1267;73372;-67
2023/09/22 15:42:06;;;;;;;4.90;3.40;;;;;;;28.40;39.63;99677.48;104241;1264;59748;-67
2023/09/22 15:44:34;;;;;;;6.30;3.50;;;;;;;28.29;39.94;99678.54;104308;1256;60049;-66
2023/09/22 15:47:06;;;;;;;5.10;3.70;;;;;;;28.19;39.94;99680.95;104372;1261;73186;-67
2023/09/22 15:49:35;;;;;;;8.20;3.40;;;;;;;28.13;40.12;99686.72;105297;1258;68055;-66
2023/09/22 15:52:03;;;;;;;8.40;3.50;;;;;;;28.05;40.18;99688.98;104337;1264;72527;-65
2023/09/22 15:54:31;;;;;;;8.80;3.90;;;;;;;27.94;40.32;99687.61;104272;1254;59740;-65
2023/09/22 15:56:59;;;;;;;;;;;;;;;27.86;40.53;99688.21;104497;1264;60099;-65
2023/09/22 15:59:27;;;;;;;5.60;3.50;;;;;;;27.74;40.65;99687.38;104346;1258;72110;-64
2023/09/22 16:01:55;;;;;;;7.20;3.30;;;;;;;27.66;40.75;99688.66;104398;1272;68842;-64
2023/09/22 16:04:23;;;;;;;6.00;3.40;;;;;;;27.57;41.02;99688.58;104349;1255;75616;-65
2023/09/22 16:06:51;;;;;;;10.20;3.60;;;;;;;27.47;41.24;99692.45;104325;1264;60640;-66
2023/09/22 16:09:21;;;;;;;9.00;3.50;;;;;;;27.39;41.36;99692.77;104391;1261;60060;-64
2023/09/22 16:11:49;;;;;;;4.70;3.50;;;;;;;27.34;41.60;99692.59;104354;1261;72935;-65
2023/09/22 16:14:17;;;;;;;6.10;3.80;;;;;;;27.30;41.67;99697.11;104352;1260;70596;-66